Terminal Aerodrome Forecast
Issued by NWS Jackson, KY

Home | Current Version | Previous Version | Text Only | Print | Product List | Glossary On
Versions: 1 2 3 4 5 6 7 8 9 10 11 12
000
FTUS43 KJKL 012339
TAFJKL
TAF
KJKL 012339Z 0200/0224 21005KT P6SM OVC008
     FM020100 21004KT P6SM OVC004
     FM020500 32003KT 2SM -RASN OVC005
     FM021200 32003KT P6SM OVC005
     FM021400 VRB03KT P6SM SCT010 BKN022
     FM021700 VRB03KT P6SM SCT250=

USA.gov is the U.S. government's official web portal to all federal, state and local government web resources and services.